sensor_id;sensor_type;location;lat;lon;timestamp;P1;durP1;ratioP1;P2;durP2;ratioP2
35518;SDS011;21627;48.216;16.482;2023-03-01T00:01:33;48.10;;;22.77;;
35518;SDS011;21627;48.216;16.482;2023-03-01T00:04:01;41.57;;;22.47;;
35518;SDS011;21627;48.216;16.482;2023-03-01T00:06:28;49.80;;;24.53;;
35518;SDS011;21627;48.216;16.482;2023-03-01T00:08:59;49.57;;;23.53;;
35518;SDS011;21627;48.216;16.482;2023-03-01T00:11:30;51.50;;;24.50;;
35518;SDS011;21627;48.216;16.482;2023-03-01T00:13:59;50.00;;;23.93;;
35518;SDS011;21627;48.216;16.482;2023-03-01T00:16:32;47.67;;;24.13;;
35518;SDS011;21627;48.216;16.482;2023-03-01T00:19:05;49.10;;;22.97;;
35518;SDS011;21627;48.216;16.482;2023-03-01T00:21:34;42.80;;;22.87;;
35518;SDS011;21627;48.216;16.482;2023-03-01T00:24:02;42.47;;;23.20;;
35518;SDS011;21627;48.216;16.482;2023-03-01T00:26:29;51.10;;;23.63;;
35518;SDS011;21627;48.216;16.482;2023-03-01T00:28:57;51.57;;;24.50;;
35518;SDS011;21627;48.216;16.482;2023-03-01T00:31:27;47.43;;;24.00;;
35518;SDS011;21627;48.216;16.482;2023-03-01T00:34:01;48.43;;;22.90;;
35518;SDS011;21627;48.216;16.482;2023-03-01T00:36:32;46.03;;;24.20;;
35518;SDS011;21627;48.216;16.482;2023-03-01T00:39:07;47.55;;;24.52;;
35518;SDS011;21627;48.216;16.482;2023-03-01T00:41:43;46.17;;;24.20;;
35518;SDS011;21627;48.216;16.482;2023-03-01T00:44:14;45.80;;;23.83;;
35518;SDS011;21627;48.216;16.482;2023-03-01T00:46:41;48.03;;;23.43;;
35518;SDS011;21627;48.216;16.482;2023-03-01T00:49:08;47.20;;;24.37;;
35518;SDS011;21627;48.216;16.482;2023-03-01T00:51:36;50.80;;;23.57;;
35518;SDS011;21627;48.216;16.482;2023-03-01T00:54:10;49.90;;;24.60;;
35518;SDS011;21627;48.216;16.482;2023-03-01T00:56:37;48.80;;;24.60;;
35518;SDS011;21627;48.216;16.482;2023-03-01T00:59:04;51.77;;;24.23;;
35518;SDS011;21627;48.216;16.482;2023-03-01T01:01:31;53.67;;;25.13;;
35518;SDS011;21627;48.216;16.482;2023-03-01T01:03:59;53.87;;;25.63;;
35518;SDS011;21627;48.216;16.482;2023-03-01T01:06:37;47.17;;;24.45;;
35518;SDS011;21627;48.216;16.482;2023-03-01T01:09:11;42.83;;;23.03;;
35518;SDS011;21627;48.216;16.482;2023-03-01T01:11:44;53.67;;;24.53;;
35518;SDS011;21627;48.216;16.482;2023-03-01T01:14:14;49.83;;;24.17;;
35518;SDS011;21627;48.216;16.482;2023-03-01T01:16:42;50.63;;;24.50;;
35518;SDS011;21627;48.216;16.482;2023-03-01T01:19:12;53.67;;;24.80;;
35518;SDS011;21627;48.216;16.482;2023-03-01T01:21:40;42.80;;;24.50;;
35518;SDS011;21627;48.216;16.482;2023-03-01T01:24:09;49.47;;;24.43;;
35518;SDS011;21627;48.216;16.482;2023-03-01T01:26:37;55.27;;;25.53;;
35518;SDS011;21627;48.216;16.482;2023-03-01T01:29:05;44.00;;;23.73;;
35518;SDS011;21627;48.216;16.482;2023-03-01T01:31:34;49.47;;;25.57;;
35518;SDS011;21627;48.216;16.482;2023-03-01T01:34:03;46.53;;;24.37;;
35518;SDS011;21627;48.216;16.482;2023-03-01T01:36:33;51.47;;;23.97;;
35518;SDS011;21627;48.216;16.482;2023-03-01T01:39:00;45.33;;;23.77;;
35518;SDS011;21627;48.216;16.482;2023-03-01T01:41:28;56.07;;;26.10;;
35518;SDS011;21627;48.216;16.482;2023-03-01T01:49:38;50.27;;;25.33;;
35518;SDS011;21627;48.216;16.482;2023-03-01T01:52:18;47.27;;;24.00;;
35518;SDS011;21627;48.216;16.482;2023-03-01T01:57:41;55.80;;;25.33;;
35518;SDS011;21627;48.216;16.482;2023-03-01T02:00:16;49.50;;;24.53;;
35518;SDS011;21627;48.216;16.482;2023-03-01T02:02:49;52.90;;;26.67;;
35518;SDS011;21627;48.216;16.482;2023-03-01T02:08:21;54.60;;;25.53;;
35518;SDS011;21627;48.216;16.482;2023-03-01T02:10:53;54.73;;;26.43;;
35518;SDS011;21627;48.216;16.482;2023-03-01T02:13:22;48.40;;;25.17;;
35518;SDS011;21627;48.216;16.482;2023-03-01T02:15:50;54.87;;;27.20;;
35518;SDS011;21627;48.216;16.482;2023-03-01T02:18:18;54.87;;;26.97;;
35518;SDS011;21627;48.216;16.482;2023-03-01T02:20:59;56.07;;;24.73;;
35518;SDS011;21627;48.216;16.482;2023-03-01T02:23:38;56.83;;;26.43;;
35518;SDS011;21627;48.216;16.482;2023-03-01T02:28:59;62.70;;;26.93;;
35518;SDS011;21627;48.216;16.482;2023-03-01T02:31:30;54.90;;;26.17;;
35518;SDS011;21627;48.216;16.482;2023-03-01T02:34:12;48.20;;;25.77;;
35518;SDS011;21627;48.216;16.482;2023-03-01T02:36:56;53.33;;;28.07;;
35518;SDS011;21627;48.216;16.482;2023-03-01T02:39:32;53.43;;;26.37;;
35518;SDS011;21627;48.216;16.482;2023-03-01T02:42:15;49.40;;;25.33;;
35518;SDS011;21627;48.216;16.482;2023-03-01T02:44:53;51.27;;;24.73;;
35518;SDS011;21627;48.216;16.482;2023-03-01T02:47:20;61.07;;;26.67;;
35518;SDS011;21627;48.216;16.482;2023-03-01T02:49:50;54.00;;;26.70;;
35518;SDS011;21627;48.216;16.482;2023-03-01T02:52:27;51.73;;;25.43;;
35518;SDS011;21627;48.216;16.482;2023-03-01T02:55:08;57.80;;;26.87;;
35518;SDS011;21627;48.216;16.482;2023-03-01T02:57:41;58.83;;;27.60;;
35518;SDS011;21627;48.216;16.482;2023-03-01T03:00:15;52.33;;;26.93;;
35518;SDS011;21627;48.216;16.482;2023-03-01T03:03:06;62.10;;;26.23;;
35518;SDS011;21627;48.216;16.482;2023-03-01T03:05:34;56.97;;;27.53;;
35518;SDS011;21627;48.216;16.482;2023-03-01T03:08:02;54.80;;;27.10;;
35518;SDS011;21627;48.216;16.482;2023-03-01T03:10:31;54.90;;;27.60;;
35518;SDS011;21627;48.216;16.482;2023-03-01T03:13:06;56.17;;;27.73;;
35518;SDS011;21627;48.216;16.482;2023-03-01T03:15:37;56.73;;;26.93;;
35518;SDS011;21627;48.216;16.482;2023-03-01T03:18:06;59.10;;;28.47;;
35518;SDS011;21627;48.216;16.482;2023-03-01T03:20:40;52.53;;;26.53;;
35518;SDS011;21627;48.216;16.482;2023-03-01T03:23:09;55.43;;;26.83;;
35518;SDS011;21627;48.216;16.482;2023-03-01T03:25:36;52.10;;;28.17;;
35518;SDS011;21627;48.216;16.482;2023-03-01T03:28:04;50.60;;;26.77;;
35518;SDS011;21627;48.216;16.482;2023-03-01T03:30:37;55.20;;;27.33;;
35518;SDS011;21627;48.216;16.482;2023-03-01T03:33:07;55.70;;;27.73;;
35518;SDS011;21627;48.216;16.482;2023-03-01T03:35:43;55.45;;;28.60;;
35518;SDS011;21627;48.216;16.482;2023-03-01T03:38:13;56.10;;;26.10;;
35518;SDS011;21627;48.216;16.482;2023-03-01T03:40:44;62.17;;;29.60;;
35518;SDS011;21627;48.216;16.482;2023-03-01T03:43:29;55.08;;;25.98;;
35518;SDS011;21627;48.216;16.482;2023-03-01T03:46:02;54.23;;;27.20;;
35518;SDS011;21627;48.216;16.482;2023-03-01T03:48:33;53.77;;;27.27;;
35518;SDS011;21627;48.216;16.482;2023-03-01T03:51:04;56.53;;;28.17;;
35518;SDS011;21627;48.216;16.482;2023-03-01T03:53:32;54.93;;;27.30;;
35518;SDS011;21627;48.216;16.482;2023-03-01T03:55:59;58.80;;;26.90;;
35518;SDS011;21627;48.216;16.482;2023-03-01T03:58:27;57.27;;;27.20;;
35518;SDS011;21627;48.216;16.482;2023-03-01T04:00:58;66.67;;;27.73;;
35518;SDS011;21627;48.216;16.482;2023-03-01T04:03:30;54.97;;;26.83;;
35518;SDS011;21627;48.216;16.482;2023-03-01T04:05:59;57.07;;;29.57;;
35518;SDS011;21627;48.216;16.482;2023-03-01T04:08:27;66.67;;;27.23;;
35518;SDS011;21627;48.216;16.482;2023-03-01T04:10:59;55.63;;;26.70;;
35518;SDS011;21627;48.216;16.482;2023-03-01T04:13:48;52.83;;;26.93;;
35518;SDS011;21627;48.216;16.482;2023-03-01T04:16:17;49.50;;;27.03;;
35518;SDS011;21627;48.216;16.482;2023-03-01T04:18:47;56.23;;;27.67;;
35518;SDS011;21627;48.216;16.482;2023-03-01T04:21:15;51.10;;;26.03;;
35518;SDS011;21627;48.216;16.482;2023-03-01T04:23:43;57.63;;;26.90;;
35518;SDS011;21627;48.216;16.482;2023-03-01T04:26:11;55.00;;;28.00;;
35518;SDS011;21627;48.216;16.482;2023-03-01T04:28:39;55.03;;;27.10;;
35518;SDS011;21627;48.216;16.482;2023-03-01T04:31:12;57.67;;;27.47;;
35518;SDS011;21627;48.216;16.482;2023-03-01T04:33:48;55.37;;;27.40;;
35518;SDS011;21627;48.216;16.482;2023-03-01T04:36:24;57.60;;;28.63;;
35518;SDS011;21627;48.216;16.482;2023-03-01T04:38:54;60.93;;;28.67;;
35518;SDS011;21627;48.216;16.482;2023-03-01T04:41:23;53.53;;;26.53;;
35518;SDS011;21627;48.216;16.482;2023-03-01T04:43:57;56.38;;;28.95;;
35518;SDS011;21627;48.216;16.482;2023-03-01T04:46:26;61.43;;;28.40;;
35518;SDS011;21627;48.216;16.482;2023-03-01T04:48:53;61.37;;;29.53;;
35518;SDS011;21627;48.216;16.482;2023-03-01T04:51:21;63.70;;;29.47;;
35518;SDS011;21627;48.216;16.482;2023-03-01T04:53:48;51.93;;;26.30;;
35518;SDS011;21627;48.216;16.482;2023-03-01T04:56:15;50.83;;;25.77;;
35518;SDS011;21627;48.216;16.482;2023-03-01T04:58:45;54.93;;;27.27;;
35518;SDS011;21627;48.216;16.482;2023-03-01T05:01:16;55.93;;;27.70;;
35518;SDS011;21627;48.216;16.482;2023-03-01T05:03:48;60.63;;;28.43;;
35518;SDS011;21627;48.216;16.482;2023-03-01T05:06:17;56.53;;;26.63;;
35518;SDS011;21627;48.216;16.482;2023-03-01T05:08:46;55.00;;;28.13;;
35518;SDS011;21627;48.216;16.482;2023-03-01T05:11:14;57.80;;;27.63;;
35518;SDS011;21627;48.216;16.482;2023-03-01T05:13:41;62.07;;;28.93;;
35518;SDS011;21627;48.216;16.482;2023-03-01T05:16:09;54.87;;;27.93;;
35518;SDS011;21627;48.216;16.482;2023-03-01T05:18:38;57.23;;;26.93;;
35518;SDS011;21627;48.216;16.482;2023-03-01T05:21:09;61.10;;;28.23;;
35518;SDS011;21627;48.216;16.482;2023-03-01T05:23:38;53.30;;;27.23;;
35518;SDS011;21627;48.216;16.482;2023-03-01T05:26:06;58.83;;;29.27;;
35518;SDS011;21627;48.216;16.482;2023-03-01T05:28:51;55.30;;;27.43;;
35518;SDS011;21627;48.216;16.482;2023-03-01T05:31:18;56.03;;;28.07;;
35518;SDS011;21627;48.216;16.482;2023-03-01T05:33:45;57.70;;;28.17;;
35518;SDS011;21627;48.216;16.482;2023-03-01T05:36:12;55.70;;;26.97;;
35518;SDS011;21627;48.216;16.482;2023-03-01T05:38:40;56.00;;;28.30;;
35518;SDS011;21627;48.216;16.482;2023-03-01T05:41:13;48.70;;;26.17;;
35518;SDS011;21627;48.216;16.482;2023-03-01T05:43:43;61.77;;;27.80;;
35518;SDS011;21627;48.216;16.482;2023-03-01T05:46:11;56.83;;;28.60;;
35518;SDS011;21627;48.216;16.482;2023-03-01T05:48:41;53.53;;;27.47;;
35518;SDS011;21627;48.216;16.482;2023-03-01T05:51:09;52.87;;;27.40;;
35518;SDS011;21627;48.216;16.482;2023-03-01T05:53:36;50.97;;;26.70;;
35518;SDS011;21627;48.216;16.482;2023-03-01T05:56:03;59.40;;;28.83;;
35518;SDS011;21627;48.216;16.482;2023-03-01T05:58:32;48.07;;;25.27;;
35518;SDS011;21627;48.216;16.482;2023-03-01T06:00:59;59.63;;;27.30;;
35518;SDS011;21627;48.216;16.482;2023-03-01T06:03:29;53.67;;;26.60;;
35518;SDS011;21627;48.216;16.482;2023-03-01T06:05:57;61.73;;;27.10;;
35518;SDS011;21627;48.216;16.482;2023-03-01T06:08:24;52.10;;;26.70;;
35518;SDS011;21627;48.216;16.482;2023-03-01T06:10:53;50.43;;;26.73;;
35518;SDS011;21627;48.216;16.482;2023-03-01T06:13:21;55.30;;;27.13;;
35518;SDS011;21627;48.216;16.482;2023-03-01T06:15:50;53.90;;;26.23;;
35518;SDS011;21627;48.216;16.482;2023-03-01T06:18:18;53.83;;;27.63;;
35518;SDS011;21627;48.216;16.482;2023-03-01T06:20:45;47.93;;;25.73;;
35518;SDS011;21627;48.216;16.482;2023-03-01T06:23:20;58.08;;;27.67;;
35518;SDS011;21627;48.216;16.482;2023-03-01T06:25:49;57.80;;;26.83;;
35518;SDS011;21627;48.216;16.482;2023-03-01T06:28:18;56.80;;;27.10;;
35518;SDS011;21627;48.216;16.482;2023-03-01T06:30:45;54.10;;;27.97;;
35518;SDS011;21627;48.216;16.482;2023-03-01T06:33:13;54.93;;;26.23;;
35518;SDS011;21627;48.216;16.482;2023-03-01T06:35:40;53.63;;;26.80;;
35518;SDS011;21627;48.216;16.482;2023-03-01T06:38:07;67.73;;;28.77;;
35518;SDS011;21627;48.216;16.482;2023-03-01T06:40:35;53.10;;;26.20;;
35518;SDS011;21627;48.216;16.482;2023-03-01T06:43:02;53.67;;;27.23;;
35518;SDS011;21627;48.216;16.482;2023-03-01T06:45:30;62.97;;;27.07;;
35518;SDS011;21627;48.216;16.482;2023-03-01T06:48:03;48.90;;;24.00;;
35518;SDS011;21627;48.216;16.482;2023-03-01T06:50:35;58.73;;;26.87;;
35518;SDS011;21627;48.216;16.482;2023-03-01T06:53:04;51.63;;;25.97;;
35518;SDS011;21627;48.216;16.482;2023-03-01T06:55:32;64.73;;;27.63;;
35518;SDS011;21627;48.216;16.482;2023-03-01T06:58:00;52.03;;;25.87;;
35518;SDS011;21627;48.216;16.482;2023-03-01T07:00:30;57.37;;;27.27;;
35518;SDS011;21627;48.216;16.482;2023-03-01T07:02:58;57.93;;;25.53;;
35518;SDS011;21627;48.216;16.482;2023-03-01T07:05:28;51.33;;;25.37;;
35518;SDS011;21627;48.216;16.482;2023-03-01T07:07:56;54.00;;;29.17;;
35518;SDS011;21627;48.216;16.482;2023-03-01T07:10:24;61.20;;;26.80;;
35518;SDS011;21627;48.216;16.482;2023-03-01T07:12:54;53.27;;;26.53;;
35518;SDS011;21627;48.216;16.482;2023-03-01T07:15:25;53.37;;;25.37;;
35518;SDS011;21627;48.216;16.482;2023-03-01T07:17:53;57.17;;;27.60;;
35518;SDS011;21627;48.216;16.482;2023-03-01T07:20:31;54.37;;;25.80;;
35518;SDS011;21627;48.216;16.482;2023-03-01T07:23:05;52.10;;;26.83;;
35518;SDS011;21627;48.216;16.482;2023-03-01T07:25:32;57.83;;;28.10;;
35518;SDS011;21627;48.216;16.482;2023-03-01T07:28:03;57.80;;;27.67;;
35518;SDS011;21627;48.216;16.482;2023-03-01T07:30:30;52.87;;;27.63;;
35518;SDS011;21627;48.216;16.482;2023-03-01T07:32:58;55.17;;;26.93;;
35518;SDS011;21627;48.216;16.482;2023-03-01T07:35:26;50.93;;;26.70;;
35518;SDS011;21627;48.216;16.482;2023-03-01T07:37:53;56.60;;;26.27;;
35518;SDS011;21627;48.216;16.482;2023-03-01T07:40:24;49.10;;;25.30;;
35518;SDS011;21627;48.216;16.482;2023-03-01T07:42:57;60.93;;;27.03;;
35518;SDS011;21627;48.216;16.482;2023-03-01T07:45:25;55.40;;;25.90;;
35518;SDS011;21627;48.216;16.482;2023-03-01T07:47:52;51.90;;;25.63;;
35518;SDS011;21627;48.216;16.482;2023-03-01T07:50:21;56.80;;;26.47;;
35518;SDS011;21627;48.216;16.482;2023-03-01T07:52:50;47.00;;;24.73;;
35518;SDS011;21627;48.216;16.482;2023-03-01T07:55:17;47.83;;;24.87;;
35518;SDS011;21627;48.216;16.482;2023-03-01T07:57:45;51.37;;;25.87;;
35518;SDS011;21627;48.216;16.482;2023-03-01T08:00:13;49.70;;;25.77;;
35518;SDS011;21627;48.216;16.482;2023-03-01T08:02:40;56.30;;;26.13;;
35518;SDS011;21627;48.216;16.482;2023-03-01T08:05:08;59.70;;;26.67;;
35518;SDS011;21627;48.216;16.482;2023-03-01T08:07:36;52.77;;;26.10;;
35518;SDS011;21627;48.216;16.482;2023-03-01T08:10:07;54.00;;;27.53;;
35518;SDS011;21627;48.216;16.482;2023-03-01T08:12:39;50.87;;;24.40;;
35518;SDS011;21627;48.216;16.482;2023-03-01T08:15:06;56.07;;;27.57;;
35518;SDS011;21627;48.216;16.482;2023-03-01T08:17:34;56.17;;;26.20;;
35518;SDS011;21627;48.216;16.482;2023-03-01T08:20:05;49.80;;;26.73;;
35518;SDS011;21627;48.216;16.482;2023-03-01T08:22:36;56.83;;;25.13;;
35518;SDS011;21627;48.216;16.482;2023-03-01T08:25:04;51.17;;;25.40;;
35518;SDS011;21627;48.216;16.482;2023-03-01T08:27:32;51.03;;;24.40;;
35518;SDS011;21627;48.216;16.482;2023-03-01T08:29:59;46.20;;;24.90;;
35518;SDS011;21627;48.216;16.482;2023-03-01T08:32:29;53.40;;;26.90;;
35518;SDS011;21627;48.216;16.482;2023-03-01T08:34:59;53.63;;;26.30;;
35518;SDS011;21627;48.216;16.482;2023-03-01T08:37:26;53.07;;;27.10;;
35518;SDS011;21627;48.216;16.482;2023-03-01T08:39:57;51.67;;;27.30;;
35518;SDS011;21627;48.216;16.482;2023-03-01T08:42:25;57.23;;;28.60;;
35518;SDS011;21627;48.216;16.482;2023-03-01T08:44:53;56.73;;;26.90;;
35518;SDS011;21627;48.216;16.482;2023-03-01T08:47:20;50.27;;;26.50;;
35518;SDS011;21627;48.216;16.482;2023-03-01T08:49:48;54.20;;;27.27;;
35518;SDS011;21627;48.216;16.482;2023-03-01T08:52:17;53.10;;;25.43;;
35518;SDS011;21627;48.216;16.482;2023-03-01T08:54:47;46.17;;;24.73;;
35518;SDS011;21627;48.216;16.482;2023-03-01T08:57:24;52.70;;;25.50;;
35518;SDS011;21627;48.216;16.482;2023-03-01T08:59:52;46.22;;;25.33;;
35518;SDS011;21627;48.216;16.482;2023-03-01T09:02:19;54.80;;;25.83;;
35518;SDS011;21627;48.216;16.482;2023-03-01T09:04:47;50.97;;;24.93;;
35518;SDS011;21627;48.216;16.482;2023-03-01T09:07:14;46.42;;;25.25;;
35518;SDS011;21627;48.216;16.482;2023-03-01T09:09:41;53.05;;;25.77;;
35518;SDS011;21627;48.216;16.482;2023-03-01T09:12:08;48.97;;;24.20;;
35518;SDS011;21627;48.216;16.482;2023-03-01T09:14:36;57.35;;;25.60;;
35518;SDS011;21627;48.216;16.482;2023-03-01T09:17:05;54.00;;;27.10;;
35518;SDS011;21627;48.216;16.482;2023-03-01T09:19:32;48.75;;;25.50;;
35518;SDS011;21627;48.216;16.482;2023-03-01T09:21:59;48.88;;;25.77;;
35518;SDS011;21627;48.216;16.482;2023-03-01T09:24:26;46.05;;;25.88;;
35518;SDS011;21627;48.216;16.482;2023-03-01T09:26:54;53.45;;;26.80;;
35518;SDS011;21627;48.216;16.482;2023-03-01T09:29:23;53.00;;;26.50;;
35518;SDS011;21627;48.216;16.482;2023-03-01T09:31:51;55.63;;;26.55;;
35518;SDS011;21627;48.216;16.482;2023-03-01T09:34:24;53.28;;;25.77;;
35518;SDS011;21627;48.216;16.482;2023-03-01T09:36:52;48.78;;;24.05;;
35518;SDS011;21627;48.216;16.482;2023-03-01T09:39:19;44.08;;;23.05;;
35518;SDS011;21627;48.216;16.482;2023-03-01T09:41:49;54.28;;;26.63;;
35518;SDS011;21627;48.216;16.482;2023-03-01T09:47:30;43.03;;;25.20;;
35518;SDS011;21627;48.216;16.482;2023-03-01T09:52:42;39.28;;;23.48;;
35518;SDS011;21627;48.216;16.482;2023-03-01T09:55:13;44.10;;;23.88;;
35518;SDS011;21627;48.216;16.482;2023-03-01T09:57:52;41.22;;;22.13;;
35518;SDS011;21627;48.216;16.482;2023-03-01T10:00:34;39.03;;;23.23;;
35518;SDS011;21627;48.216;16.482;2023-03-01T10:03:17;40.63;;;21.65;;
35518;SDS011;21627;48.216;16.482;2023-03-01T10:09:05;44.58;;;22.38;;
35518;SDS011;21627;48.216;16.482;2023-03-01T10:11:45;41.20;;;21.30;;
35518;SDS011;21627;48.216;16.482;2023-03-01T10:14:29;44.70;;;22.80;;
35518;SDS011;21627;48.216;16.482;2023-03-01T10:23:22;40.13;;;21.40;;
35518;SDS011;21627;48.216;16.482;2023-03-01T10:29:06;36.72;;;19.48;;
35518;SDS011;21627;48.216;16.482;2023-03-01T10:31:48;31.20;;;19.77;;
35518;SDS011;21627;48.216;16.482;2023-03-01T10:34:25;37.42;;;20.60;;
35518;SDS011;21627;48.216;16.482;2023-03-01T10:36:58;36.75;;;20.25;;
35518;SDS011;21627;48.216;16.482;2023-03-01T10:40:24;35.40;;;20.60;;
35518;SDS011;21627;48.216;16.482;2023-03-01T10:42:48;38.60;;;18.77;;
35518;SDS011;21627;48.216;16.482;2023-03-01T10:50:43;30.20;;;18.90;;
35518;SDS011;21627;48.216;16.482;2023-03-01T10:53:32;31.10;;;18.42;;
35518;SDS011;21627;48.216;16.482;2023-03-01T10:56:17;32.05;;;18.10;;
35518;SDS011;21627;48.216;16.482;2023-03-01T10:58:58;33.78;;;18.20;;
35518;SDS011;21627;48.216;16.482;2023-03-01T11:01:34;36.88;;;18.52;;
35518;SDS011;21627;48.216;16.482;2023-03-01T11:04:12;35.97;;;19.42;;
35518;SDS011;21627;48.216;16.482;2023-03-01T11:06:41;33.17;;;17.40;;
35518;SDS011;21627;48.216;16.482;2023-03-01T11:09:15;30.27;;;17.48;;
35518;SDS011;21627;48.216;16.482;2023-03-01T11:12:00;34.25;;;18.48;;
35518;SDS011;21627;48.216;16.482;2023-03-01T11:14:35;31.85;;;17.10;;
35518;SDS011;21627;48.216;16.482;2023-03-01T11:20:09;34.63;;;18.80;;
35518;SDS011;21627;48.216;16.482;2023-03-01T11:23:03;32.50;;;18.15;;
35518;SDS011;21627;48.216;16.482;2023-03-01T11:25:37;26.10;;;16.10;;
35518;SDS011;21627;48.216;16.482;2023-03-01T11:28:12;33.00;;;17.33;;
35518;SDS011;21627;48.216;16.482;2023-03-01T11:30:56;28.27;;;15.75;;
35518;SDS011;21627;48.216;16.482;2023-03-01T11:33:47;23.38;;;14.10;;
35518;SDS011;21627;48.216;16.482;2023-03-01T11:36:35;26.90;;;15.70;;
35518;SDS011;21627;48.216;16.482;2023-03-01T11:42:12;23.48;;;14.43;;
35518;SDS011;21627;48.216;16.482;2023-03-01T11:45:21;22.15;;;13.20;;
35518;SDS011;21627;48.216;16.482;2023-03-01T11:50:29;24.95;;;14.63;;
35518;SDS011;21627;48.216;16.482;2023-03-01T11:54:03;22.27;;;12.30;;
35518;SDS011;21627;48.216;16.482;2023-03-01T11:56:38;22.13;;;13.40;;
35518;SDS011;21627;48.216;16.482;2023-03-01T12:00:08;24.70;;;14.25;;
35518;SDS011;21627;48.216;16.482;2023-03-01T12:03:38;26.55;;;14.48;;
35518;SDS011;21627;48.216;16.482;2023-03-01T12:06:38;25.67;;;14.27;;
35518;SDS011;21627;48.216;16.482;2023-03-01T12:15:11;26.23;;;14.68;;
35518;SDS011;21627;48.216;16.482;2023-03-01T12:18:41;26.40;;;13.85;;
35518;SDS011;21627;48.216;16.482;2023-03-01T12:21:29;24.05;;;14.30;;
35518;SDS011;21627;48.216;16.482;2023-03-01T12:24:39;21.10;;;14.18;;
35518;SDS011;21627;48.216;16.482;2023-03-01T12:28:04;25.60;;;14.80;;
35518;SDS011;21627;48.216;16.482;2023-03-01T12:51:44;29.13;;;16.30;;
35518;SDS011;21627;48.216;16.482;2023-03-01T12:54:39;27.38;;;14.82;;
35518;SDS011;21627;48.216;16.482;2023-03-01T13:06:08;28.70;;;15.82;;
35518;SDS011;21627;48.216;16.482;2023-03-01T13:11:28;27.35;;;15.93;;
35518;SDS011;21627;48.216;16.482;2023-03-01T13:17:29;24.25;;;15.30;;
35518;SDS011;21627;48.216;16.482;2023-03-01T13:20:19;26.45;;;16.05;;
35518;SDS011;21627;48.216;16.482;2023-03-01T13:28:50;33.30;;;16.23;;
35518;SDS011;21627;48.216;16.482;2023-03-01T13:33:46;24.48;;;14.55;;
35518;SDS011;21627;48.216;16.482;2023-03-01T13:44:33;27.33;;;15.88;;
35518;SDS011;21627;48.216;16.482;2023-03-01T13:47:12;27.00;;;15.55;;
35518;SDS011;21627;48.216;16.482;2023-03-01T13:49:48;23.67;;;15.55;;
35518;SDS011;21627;48.216;16.482;2023-03-01T14:03:26;28.10;;;16.98;;
35518;SDS011;21627;48.216;16.482;2023-03-01T14:08:44;44.88;;;16.58;;
35518;SDS011;21627;48.216;16.482;2023-03-01T14:19:26;34.30;;;18.65;;
35518;SDS011;21627;48.216;16.482;2023-03-01T14:24:58;35.55;;;18.10;;
35518;SDS011;21627;48.216;16.482;2023-03-01T14:30:44;26.35;;;16.90;;
35518;SDS011;21627;48.216;16.482;2023-03-01T14:36:00;27.02;;;17.35;;
35518;SDS011;21627;48.216;16.482;2023-03-01T14:38:31;28.65;;;17.70;;
35518;SDS011;21627;48.216;16.482;2023-03-01T14:41:07;32.95;;;18.85;;
35518;SDS011;21627;48.216;16.482;2023-03-01T14:43:37;36.58;;;18.13;;
35518;SDS011;21627;48.216;16.482;2023-03-01T14:49:02;27.60;;;18.55;;
35518;SDS011;21627;48.216;16.482;2023-03-01T14:51:30;27.10;;;16.55;;
35518;SDS011;21627;48.216;16.482;2023-03-01T14:54:16;30.33;;;18.55;;
35518;SDS011;21627;48.216;16.482;2023-03-01T14:57:25;27.92;;;17.88;;
35518;SDS011;21627;48.216;16.482;2023-03-01T15:00:00;38.58;;;18.00;;
35518;SDS011;21627;48.216;16.482;2023-03-01T15:02:33;32.85;;;17.48;;
35518;SDS011;21627;48.216;16.482;2023-03-01T15:05:02;32.22;;;18.08;;
35518;SDS011;21627;48.216;16.482;2023-03-01T15:07:35;30.25;;;17.17;;
35518;SDS011;21627;48.216;16.482;2023-03-01T15:10:07;32.22;;;18.92;;
35518;SDS011;21627;48.216;16.482;2023-03-01T15:13:37;36.00;;;18.48;;
35518;SDS011;21627;48.216;16.482;2023-03-01T15:16:03;30.48;;;17.13;;
35518;SDS011;21627;48.216;16.482;2023-03-01T15:18:36;32.42;;;18.15;;
35518;SDS011;21627;48.216;16.482;2023-03-01T15:23:52;29.75;;;17.30;;
35518;SDS011;21627;48.216;16.482;2023-03-01T15:26:50;34.88;;;19.10;;
35518;SDS011;21627;48.216;16.482;2023-03-01T15:29:31;30.30;;;17.70;;
35518;SDS011;21627;48.216;16.482;2023-03-01T15:32:22;27.50;;;16.20;;
35518;SDS011;21627;48.216;16.482;2023-03-01T15:35:00;30.52;;;18.13;;
35518;SDS011;21627;48.216;16.482;2023-03-01T15:37:48;31.55;;;16.50;;
35518;SDS011;21627;48.216;16.482;2023-03-01T15:40:26;29.23;;;17.95;;
35518;SDS011;21627;48.216;16.482;2023-03-01T15:45:31;37.67;;;18.77;;
35518;SDS011;21627;48.216;16.482;2023-03-01T15:48:26;30.10;;;16.93;;
35518;SDS011;21627;48.216;16.482;2023-03-01T15:50:56;32.60;;;17.73;;
35518;SDS011;21627;48.216;16.482;2023-03-01T15:55:55;28.23;;;17.10;;
35518;SDS011;21627;48.216;16.482;2023-03-01T15:58:23;32.13;;;17.52;;
35518;SDS011;21627;48.216;16.482;2023-03-01T16:00:52;29.02;;;17.55;;
35518;SDS011;21627;48.216;16.482;2023-03-01T16:03:27;32.45;;;17.70;;
35518;SDS011;21627;48.216;16.482;2023-03-01T16:05:55;29.23;;;16.50;;
35518;SDS011;21627;48.216;16.482;2023-03-01T16:08:26;27.08;;;16.55;;
35518;SDS011;21627;48.216;16.482;2023-03-01T16:10:53;32.15;;;15.95;;
35518;SDS011;21627;48.216;16.482;2023-03-01T16:13:24;28.90;;;15.52;;
35518;SDS011;21627;48.216;16.482;2023-03-01T16:15:54;30.48;;;18.00;;
35518;SDS011;21627;48.216;16.482;2023-03-01T16:18:22;28.50;;;16.23;;
35518;SDS011;21627;48.216;16.482;2023-03-01T16:20:49;30.50;;;17.92;;
35518;SDS011;21627;48.216;16.482;2023-03-01T16:23:20;26.38;;;15.68;;
35518;SDS011;21627;48.216;16.482;2023-03-01T16:25:51;25.23;;;15.27;;
35518;SDS011;21627;48.216;16.482;2023-03-01T16:28:18;30.17;;;17.45;;
35518;SDS011;21627;48.216;16.482;2023-03-01T16:30:46;28.35;;;17.58;;
35518;SDS011;21627;48.216;16.482;2023-03-01T16:33:24;31.95;;;17.55;;
35518;SDS011;21627;48.216;16.482;2023-03-01T16:35:59;43.40;;;20.52;;
35518;SDS011;21627;48.216;16.482;2023-03-01T16:38:29;36.35;;;21.23;;
35518;SDS011;21627;48.216;16.482;2023-03-01T16:40:59;33.67;;;19.17;;
35518;SDS011;21627;48.216;16.482;2023-03-01T16:43:26;34.60;;;18.65;;
35518;SDS011;21627;48.216;16.482;2023-03-01T16:45:54;37.45;;;18.98;;
35518;SDS011;21627;48.216;16.482;2023-03-01T16:48:25;33.58;;;18.63;;
35518;SDS011;21627;48.216;16.482;2023-03-01T16:50:59;36.85;;;19.17;;
35518;SDS011;21627;48.216;16.482;2023-03-01T16:53:28;28.83;;;17.60;;
35518;SDS011;21627;48.216;16.482;2023-03-01T16:55:58;32.90;;;18.15;;
35518;SDS011;21627;48.216;16.482;2023-03-01T16:58:27;35.30;;;18.15;;
35518;SDS011;21627;48.216;16.482;2023-03-01T17:00:55;31.38;;;17.92;;
35518;SDS011;21627;48.216;16.482;2023-03-01T17:03:35;30.13;;;17.38;;
35518;SDS011;21627;48.216;16.482;2023-03-01T17:06:07;31.58;;;17.92;;
35518;SDS011;21627;48.216;16.482;2023-03-01T17:08:39;29.92;;;17.50;;
35518;SDS011;21627;48.216;16.482;2023-03-01T17:11:08;35.80;;;18.83;;